Time;durP1;ratioP1;P1;durP2;ratioP2;P2;SDS_P1;SDS_P2;PMS_P1;PMS_P2;Temp;Humidity;BMP_temperature;BMP_pressure;BME280_temperature;BME280_humidity;BME280_pressure;Samples;Min_cycle;Max_cycle;Signal;HPM_P1;HPM_P2
2023/06/14 00:00:08;;;;;;;8.27;5.27;;;;;;;17.32;99.43;99810.59;5040382;28;20278;-58
2023/06/14 00:02:39;;;;;;;9.40;5.13;;;;;;;17.37;99.97;99803.28;5029836;28;20344;-58
2023/06/14 00:05:11;;;;;;;5.47;4.70;;;;;;;17.45;99.44;99811.69;5040012;28;20991;-59
2023/06/14 00:07:43;;;;;;;9.80;5.40;;;;;;;17.49;100.00;99802.66;5029765;28;20558;-58
2023/06/14 00:10:16;;;;;;;6.60;5.43;;;;;;;17.52;99.58;99796.34;5039436;28;20376;-58
2023/06/14 00:12:48;;;;;;;15.87;5.80;;;;;;;17.68;99.25;99808.69;5029415;28;20710;-59
2023/06/14 00:15:19;;;;;;;10.13;5.27;;;;;;;17.81;98.68;99808.06;5040157;28;20303;-59
2023/06/14 00:17:49;;;;;;;11.43;5.83;;;;;;;17.87;98.21;99810.34;5029478;28;20315;-58
2023/06/14 00:20:20;;;;;;;8.37;5.93;;;;;;;18.00;97.92;99808.78;5039812;28;20382;-59
2023/06/14 00:22:51;;;;;;;8.70;6.37;;;;;;;18.20;98.45;99805.03;5029190;28;20284;-59
2023/06/14 00:25:25;;;;;;;10.63;7.00;;;;;;;18.34;97.14;99791.03;5039433;28;20287;-59
2023/06/14 00:27:59;;;;;;;8.43;6.00;;;;;;;18.58;96.65;99801.19;5030186;28;20340;-59
2023/06/14 00:30:30;;;;;;;11.90;6.83;;;;;;;18.79;95.79;99792.03;5039566;28;20279;-58
2023/06/14 00:33:01;;;;;;;11.83;7.33;;;;;;;18.95;94.72;99803.44;5029245;28;20618;-58
2023/06/14 00:35:31;;;;;;;13.70;6.60;;;;;;;18.98;93.87;99796.28;5037754;28;20349;-58
2023/06/14 00:38:02;;;;;;;9.10;6.80;;;;;;;19.15;93.59;99814.69;5039604;28;20336;-58
2023/06/14 00:40:34;;;;;;;11.20;6.63;;;;;;;19.17;93.77;99802.19;5032066;28;20344;-58
2023/06/14 00:43:05;;;;;;;9.43;6.33;;;;;;;19.25;93.53;99825.59;5039763;28;20298;-58
2023/06/14 00:45:36;;;;;;;8.47;6.10;;;;;;;19.21;93.34;99824.91;5029054;28;21483;-58
2023/06/14 00:48:09;;;;;;;12.27;6.70;;;;;;;19.10;92.78;99822.88;5043883;28;20279;-57
2023/06/14 00:50:41;;;;;;;11.67;7.20;;;;;;;19.05;92.83;99824.09;5033008;28;20311;-58
2023/06/14 00:53:12;;;;;;;9.20;5.53;;;;;;;19.14;93.40;99824.38;5043074;28;20429;-58
2023/06/14 00:55:44;;;;;;;9.97;5.27;;;;;;;19.27;92.98;99824.53;5032822;28;20685;-58
2023/06/14 00:58:16;;;;;;;11.33;5.50;;;;;;;19.43;92.87;99828.94;5043624;28;20294;-58
2023/06/14 01:00:47;;;;;;;9.13;5.43;;;;;;;19.48;93.13;99833.00;5032783;28;20336;-59
2023/06/14 01:03:19;;;;;;;6.43;5.23;;;;;;;19.47;92.71;99833.94;5043588;28;20291;-58
2023/06/14 01:05:50;;;;;;;8.83;4.97;;;;;;;19.42;91.93;99836.03;5031396;28;20307;-58
2023/06/14 01:08:30;;;;;;;9.37;4.97;;;;;;;19.30;91.74;99839.41;5042489;28;20291;-58
2023/06/14 01:11:07;;;;;;;7.97;5.50;;;;;;;19.03;91.03;99837.41;5032555;28;20693;-57
2023/06/14 01:13:39;;;;;;;10.43;5.63;;;;;;;18.85;92.69;99828.75;5033955;28;20049;-57
2023/06/14 01:16:11;;;;;;;8.50;5.53;;;;;;;18.93;93.05;99826.50;5042762;28;20286;-58
2023/06/14 01:18:47;;;;;;;7.93;4.57;;;;;;;18.97;92.64;99827.19;5032475;28;20278;-57
2023/06/14 01:21:24;;;;;;;6.90;3.90;;;;;;;19.11;92.46;99829.88;5043485;28;20283;-57
2023/06/14 01:23:56;;;;;;;6.40;3.70;;;;;;;19.35;93.11;99819.63;5033089;28;20298;-58
2023/06/14 01:26:28;;;;;;;10.37;4.80;;;;;;;19.83;92.92;99824.72;5043264;28;20291;-56
2023/06/14 01:29:00;;;;;;;7.37;4.07;;;;;;;20.28;90.65;99821.94;5032233;28;20306;-56
2023/06/14 01:31:39;;;;;;;6.70;4.40;;;;;;;20.40;89.34;99786.66;5040180;28;20283;-56
2023/06/14 01:34:10;;;;;;;9.68;3.60;;;;;;;20.84;87.44;99814.78;5042929;28;20383;-58
2023/06/14 01:36:43;;;;;;;8.93;3.23;;;;;;;20.86;85.58;99812.88;5032388;28;20102;-57
2023/06/14 01:39:17;;;;;;;8.10;4.20;;;;;;;21.01;85.72;99821.63;5043360;28;20314;-57
2023/06/14 01:41:49;;;;;;;5.13;3.47;;;;;;;20.99;83.67;99819.09;5032258;28;20681;-57
2023/06/14 01:44:20;;;;;;;6.00;3.47;;;;;;;21.01;83.93;99811.84;5042373;28;20447;-57
2023/06/14 01:46:51;;;;;;;7.03;3.13;;;;;;;21.04;84.18;99816.97;5032350;28;21284;-59
2023/06/14 01:49:23;;;;;;;5.07;2.80;;;;;;;21.16;83.17;99814.44;5042102;28;20291;-57
2023/06/14 01:51:53;;;;;;;7.03;2.40;;;;;;;21.38;82.60;99814.69;5032191;28;20274;-58
2023/06/14 01:54:25;;;;;;;3.60;2.40;;;;;;;21.48;82.55;99810.47;5042643;28;20368;-58
2023/06/14 01:56:56;;;;;;;3.47;1.87;;;;;;;21.52;81.94;99811.13;5032241;28;20773;-56
2023/06/14 01:59:27;;;;;;;5.37;2.47;;;;;;;21.60;81.84;99807.94;5041730;28;20368;-58
2023/06/14 02:01:58;;;;;;;4.33;2.50;;;;;;;21.60;81.26;99807.94;5031548;28;20302;-59
2023/06/14 02:04:28;;;;;;;3.43;2.40;;;;;;;21.68;81.12;99806.44;5041738;28;20221;-58
2023/06/14 02:06:59;;;;;;;5.37;2.53;;;;;;;21.66;80.54;99810.16;5031301;28;20313;-57
2023/06/14 02:09:31;;;;;;;5.20;2.60;;;;;;;21.59;80.45;99808.88;5041742;28;20101;-56
2023/06/14 02:12:02;;;;;;;5.77;2.33;;;;;;;21.57;80.46;99798.34;5041766;28;20094;-56
2023/06/14 02:14:33;;;;;;;7.17;2.73;;;;;;;21.76;80.39;99809.38;5031557;28;20411;-57
2023/06/14 02:17:04;;;;;;;6.50;2.07;;;;;;;21.73;79.46;99820.25;5041966;28;20287;-56
2023/06/14 02:19:35;;;;;;;6.53;2.43;;;;;;;21.42;78.12;99810.91;5031169;28;20060;-57
2023/06/14 02:22:06;;;;;;;8.57;3.00;;;;;;;21.13;79.37;99817.31;5041089;28;20048;-58
2023/06/14 02:24:39;;;;;;;4.97;3.23;;;;;;;20.87;79.81;99819.91;5031157;28;20044;-58
2023/06/14 02:27:10;;;;;;;9.27;3.17;;;;;;;20.66;81.08;99807.06;5041867;28;20283;-58
2023/06/14 02:29:41;;;;;;;10.90;2.97;;;;;;;20.68;82.46;99815.78;5031249;28;20087;-56
2023/06/14 02:32:11;;;;;;;9.17;2.87;;;;;;;20.61;83.02;99814.47;5041282;28;20052;-57
2023/06/14 02:34:42;;;;;;;5.77;2.60;;;;;;;20.50;82.10;99809.00;5030944;28;20283;-57
2023/06/14 02:37:16;;;;;;;8.37;2.57;;;;;;;20.39;83.09;99798.22;5041429;28;20832;-57
2023/06/14 02:39:48;;;;;;;4.20;2.60;;;;;;;20.12;83.19;99758.38;5031238;28;20941;-56
2023/06/14 02:42:19;;;;;;;4.30;2.43;;;;;;;20.33;83.49;99793.31;5041828;28;20736;-58
2023/06/14 02:44:51;;;;;;;5.97;2.50;;;;;;;20.36;83.99;99793.13;5030784;28;20299;-58
2023/06/14 02:47:22;;;;;;;5.77;2.97;;;;;;;20.42;83.97;99790.94;5041193;28;20300;-58
2023/06/14 02:49:52;;;;;;;4.40;2.53;;;;;;;20.59;84.67;99786.34;5030944;28;20279;-58
2023/06/14 02:52:25;;;;;;;11.43;2.80;;;;;;;20.79;84.51;99793.00;5040474;28;20298;-57
2023/06/14 02:54:57;;;;;;;4.10;2.60;;;;;;;20.89;83.56;99788.75;5030873;28;20792;-58
2023/06/14 02:57:28;;;;;;;6.80;2.77;;;;;;;20.91;82.12;99794.81;5041566;28;20297;-57
2023/06/14 02:59:58;;;;;;;7.47;3.10;;;;;;;20.93;82.16;99795.59;5030776;28;20291;-57
2023/06/14 03:02:29;;;;;;;7.40;3.40;;;;;;;21.00;82.61;99799.53;5040738;28;20684;-58
2023/06/14 03:05:01;;;;;;;4.43;2.73;;;;;;;21.00;82.39;99794.22;5029994;28;20317;-56
2023/06/14 03:07:31;;;;;;;7.57;2.63;;;;;;;21.03;82.05;99788.69;5037048;28;20302;-56
2023/06/14 03:10:04;;;;;;;9.67;3.70;;;;;;;20.85;81.62;99768.69;5038679;28;20289;-57
2023/06/14 03:12:35;;;;;;;6.03;3.40;;;;;;;21.05;82.28;99789.44;5029301;28;20291;-57
2023/06/14 03:15:06;;;;;;;7.40;3.20;;;;;;;21.05;81.71;99792.09;5040699;28;20283;-59
2023/06/14 03:17:38;;;;;;;6.70;3.10;;;;;;;21.03;81.15;99787.84;5028963;28;20282;-56
2023/06/14 03:20:10;;;;;;;6.67;3.30;;;;;;;21.09;81.00;99788.31;5039936;28;20129;-58
2023/06/14 03:22:40;;;;;;;7.23;3.50;;;;;;;20.99;80.66;99776.59;5029468;28;20144;-57
2023/06/14 03:25:13;;;;;;;6.47;3.10;;;;;;;20.81;80.64;99751.25;5040057;28;20467;-56
2023/06/14 03:27:44;;;;;;;6.37;3.37;;;;;;;21.02;80.33;99797.63;5029466;28;20376;-57
2023/06/14 03:30:16;;;;;;;5.50;3.10;;;;;;;21.02;80.21;99791.47;5039615;28;20398;-57
2023/06/14 03:32:57;;;;;;;6.10;3.10;;;;;;;21.11;80.66;99781.06;5028665;28;20063;-57
2023/06/14 03:35:29;;;;;;;5.47;3.43;;;;;;;21.28;80.65;99784.38;5038198;28;20881;-56
2023/06/14 03:38:00;;;;;;;4.67;3.50;;;;;;;21.40;80.25;99788.88;5029237;28;20322;-56
2023/06/14 03:40:33;;;;;;;6.03;3.37;;;;;;;21.28;79.44;99776.41;5039256;28;20059;-57
2023/06/14 03:43:03;;;;;;;6.33;3.13;;;;;;;21.36;79.71;99792.66;5040391;28;20356;-58
2023/06/14 03:45:34;;;;;;;4.90;3.50;;;;;;;21.39;80.19;99795.16;5029981;28;20282;-58
2023/06/14 03:48:06;;;;;;;8.03;3.10;;;;;;;21.38;80.23;99772.16;5040298;28;20569;-57
2023/06/14 03:50:37;;;;;;;4.33;3.67;;;;;;;21.46;80.04;99788.44;5027123;28;20102;-57
2023/06/14 03:53:08;;;;;;;7.53;3.40;;;;;;;21.40;80.00;99791.53;5039960;28;20495;-57
2023/06/14 03:55:41;;;;;;;10.10;4.33;;;;;;;21.29;80.08;99783.41;5029305;28;20055;-57
2023/06/14 03:58:14;;;;;;;8.67;3.57;;;;;;;21.02;80.02;99755.13;5040162;28;20632;-57
2023/06/14 04:00:45;;;;;;;4.73;3.27;;;;;;;21.11;80.51;99781.06;5029732;28;20053;-57
2023/06/14 04:03:16;;;;;;;8.60;3.47;;;;;;;21.05;81.19;99770.84;5040305;28;20338;-57
2023/06/14 04:05:49;;;;;;;8.33;3.70;;;;;;;21.16;81.62;99780.75;5029274;28;20196;-56
2023/06/14 04:08:19;;;;;;;7.37;4.00;;;;;;;21.20;80.70;99774.28;5039642;28;20306;-56
2023/06/14 04:10:52;;;;;;;5.97;3.37;;;;;;;21.29;80.29;99772.78;5028580;28;20353;-56
2023/06/14 04:13:22;;;;;;;6.37;3.30;;;;;;;21.31;80.76;99776.19;5038711;28;20059;-58
2023/06/14 04:15:53;;;;;;;4.30;3.13;;;;;;;21.42;81.25;99779.00;5028250;28;20056;-56
2023/06/14 04:18:24;;;;;;;6.47;3.97;;;;;;;21.27;80.19;99764.94;5039553;28;20745;-55
2023/06/14 04:20:56;;;;;;;7.30;3.70;;;;;;;21.19;80.13;99782.34;5008796;28;20177;-57
2023/06/14 04:23:28;;;;;;;7.13;4.17;;;;;;;20.94;80.61;99762.75;5034959;28;20110;-57
2023/06/14 04:26:02;;;;;;;5.17;3.90;;;;;;;20.87;80.58;99782.72;5028720;28;20052;-58
2023/06/14 04:28:37;;;;;;;6.77;4.10;;;;;;;20.88;81.02;99779.09;5030938;28;20048;-55
2023/06/14 04:31:08;;;;;;;6.93;4.13;;;;;;;21.00;82.04;99772.13;5038697;28;20295;-57
2023/06/14 04:33:43;;;;;;;5.27;3.60;;;;;;;21.10;81.21;99774.06;5028445;28;20295;-57
2023/06/14 04:36:17;;;;;;;5.27;3.53;;;;;;;21.24;80.62;99767.81;5039536;28;20283;-56
2023/06/14 04:38:49;;;;;;;4.87;3.90;;;;;;;21.31;79.76;99765.56;5028548;28;20283;-57
2023/06/14 04:41:22;;;;;;;7.03;3.40;;;;;;;21.38;80.01;99768.66;5039019;28;20294;-56
2023/06/14 04:43:53;;;;;;;7.30;3.90;;;;;;;21.16;80.08;99724.13;5028101;28;20044;-58
2023/06/14 04:46:23;;;;;;;4.63;3.40;;;;;;;21.50;80.11;99760.72;5038415;28;20398;-56
2023/06/14 04:48:55;;;;;;;4.63;3.50;;;;;;;21.58;79.53;99759.31;5028368;28;20394;-57
2023/06/14 04:51:29;;;;;;;5.00;3.33;;;;;;;21.66;78.44;99764.94;5039434;28;20290;-56
2023/06/14 04:54:01;;;;;;;8.60;3.60;;;;;;;21.69;78.87;99744.34;5028450;28;20779;-56
2023/06/14 04:56:33;;;;;;;10.07;4.37;;;;;;;21.85;79.15;99749.41;5034565;28;20445;-56
2023/06/14 04:59:04;;;;;;;7.03;3.90;;;;;;;22.04;78.92;99748.06;5038061;28;20794;-56
2023/06/14 05:01:35;;;;;;;6.63;3.80;;;;;;;22.05;78.97;99717.84;5026950;28;20287;-58
2023/06/14 05:04:06;;;;;;;4.60;3.10;;;;;;;22.56;76.36;99745.13;5038525;28;20130;-57
2023/06/14 05:06:38;;;;;;;8.07;3.80;;;;;;;22.85;75.55;99746.56;5028089;28;20114;-56
2023/06/14 05:09:08;;;;;;;7.03;3.47;;;;;;;22.80;75.77;99737.09;5038394;28;20059;-57
2023/06/14 05:11:42;;;;;;;8.03;4.30;;;;;;;22.66;73.68;99739.09;5027779;28;20440;-56
2023/06/14 05:14:12;;;;;;;6.13;4.03;;;;;;;22.43;74.40;99730.19;5038660;28;20052;-57
2023/06/14 05:16:43;;;;;;;6.30;3.37;;;;;;;22.35;74.39;99736.91;5028218;28;20053;-57
2023/06/14 05:19:14;;;;;;;4.93;3.10;;;;;;;22.28;73.91;99738.34;5038692;28;20048;-57
2023/06/14 05:21:45;;;;;;;7.87;3.50;;;;;;;22.34;75.08;99735.22;5028188;28;20053;-56
2023/06/14 05:24:16;;;;;;;7.93;3.70;;;;;;;22.35;74.52;99728.94;5038998;28;20067;-56
2023/06/14 05:26:49;;;;;;;8.37;3.50;;;;;;;22.37;73.57;99734.16;5028596;28;20559;-56
2023/06/14 05:29:19;;;;;;;4.77;3.03;;;;;;;22.55;73.53;99737.25;5038115;28;20055;-57
2023/06/14 05:31:50;;;;;;;10.37;3.90;;;;;;;22.68;74.29;99737.19;5028251;28;20059;-57
2023/06/14 05:34:21;;;;;;;7.47;3.57;;;;;;;22.67;74.80;99716.88;5040971;28;20048;-57
2023/06/14 05:36:51;;;;;;;8.77;3.67;;;;;;;22.92;73.79;99729.16;5031620;28;20060;-57
2023/06/14 05:39:24;;;;;;;8.90;4.33;;;;;;;23.23;73.79;99728.50;5042731;28;20084;-56
2023/06/14 05:41:56;;;;;;;8.37;3.80;;;;;;;23.55;74.29;99738.50;5031809;28;20044;-56
2023/06/14 05:44:26;;;;;;;8.20;3.97;;;;;;;23.51;71.10;99737.03;5042225;28;20049;-57
2023/06/14 05:46:57;;;;;;;9.17;4.03;;;;;;;23.57;70.59;99728.56;5030894;28;20051;-57
2023/06/14 05:49:28;;;;;;;9.80;3.97;;;;;;;23.63;69.36;99730.72;5041990;28;20135;-56
2023/06/14 05:51:58;;;;;;;8.23;4.03;;;;;;;23.63;68.81;99730.72;5032041;28;20049;-58
2023/06/14 05:54:29;;;;;;;8.83;3.83;;;;;;;23.58;69.87;99722.25;5042138;28;20148;-57
2023/06/14 05:57:03;;;;;;;8.20;4.17;;;;;;;23.52;69.98;99728.06;5012960;28;20052;-56
2023/06/14 05:59:34;;;;;;;10.63;3.70;;;;;;;23.18;70.60;99714.69;5031101;28;20048;-57
2023/06/14 06:02:05;;;;;;;8.47;4.13;;;;;;;22.97;70.34;99729.66;5040917;28;20053;-56
2023/06/14 06:04:35;;;;;;;13.07;4.13;;;;;;;22.62;71.80;99727.84;5030708;28;20131;-57
2023/06/14 06:07:07;;;;;;;10.43;4.07;;;;;;;22.38;73.20;99726.03;5041472;28;20049;-57
2023/06/14 06:09:37;;;;;;;5.93;3.70;;;;;;;22.29;73.81;99731.19;5030928;28;20511;-56
2023/06/14 06:12:10;;;;;;;9.07;3.70;;;;;;;22.12;74.03;99729.75;5041857;28;20079;-56
2023/06/14 06:14:41;;;;;;;8.10;3.47;;;;;;;22.00;73.32;99730.66;5030341;28;20059;-56
2023/06/14 06:17:11;;;;;;;5.37;3.50;;;;;;;21.92;74.00;99717.91;5040871;28;20552;-57
2023/06/14 06:19:42;;;;;;;7.13;3.90;;;;;;;21.86;74.88;99719.16;5031047;28;20535;-56
2023/06/14 06:22:12;;;;;;;6.40;3.43;;;;;;;21.77;75.14;99709.22;5041114;28;20052;-58
2023/06/14 06:24:43;;;;;;;9.07;3.73;;;;;;;21.89;75.14;99718.97;5030236;28;20487;-58
2023/06/14 06:27:16;;;;;;;15.70;4.13;;;;;;;21.92;74.51;99724.06;5041925;28;20063;-58
2023/06/14 06:29:48;;;;;;;7.63;4.10;;;;;;;21.94;74.54;99719.50;5031131;28;20049;-57
2023/06/14 06:32:18;;;;;;;7.00;3.57;;;;;;;21.94;74.29;99722.16;5040532;28;20078;-57
2023/06/14 06:34:50;;;;;;;7.60;3.60;;;;;;;21.96;76.19;99714.88;5030340;28;20367;-57
2023/06/14 06:37:21;;;;;;;9.23;3.77;;;;;;;21.59;75.53;99683.91;4989024;28;20479;-57
2023/06/14 06:39:51;;;;;;;8.10;4.00;;;;;;;21.63;75.90;99717.31;5030406;28;20061;-56
2023/06/14 06:42:23;;;;;;;9.40;3.97;;;;;;;21.54;76.32;99714.34;5041080;28;20052;-58
2023/06/14 06:44:54;;;;;;;7.50;4.37;;;;;;;21.22;78.06;99692.66;5029612;28;20568;-57
2023/06/14 06:47:24;;;;;;;6.23;4.07;;;;;;;21.28;78.43;99712.63;5040557;28;20321;-57
2023/06/14 06:49:55;;;;;;;8.03;4.57;;;;;;;20.97;78.08;99695.31;5030145;28;20722;-57
2023/06/14 06:52:26;;;;;;;10.17;5.30;;;;;;;20.90;79.38;99718.78;5040557;28;20730;-57
2023/06/14 06:54:57;;;;;;;6.97;4.10;;;;;;;20.76;79.71;99721.50;5030019;28;20048;-56
2023/06/14 06:57:29;;;;;;;8.73;4.50;;;;;;;20.49;80.66;99693.16;5041138;28;20287;-57
2023/06/14 07:00:00;;;;;;;7.53;4.50;;;;;;;20.51;81.11;99719.63;5022384;28;20294;-57
2023/06/14 07:02:31;;;;;;;8.50;4.40;;;;;;;20.41;82.20;99722.03;5039733;28;20370;-56
2023/06/14 07:05:02;;;;;;;8.77;4.77;;;;;;;20.40;82.74;99720.34;5029189;28;20694;-56
2023/06/14 07:07:32;;;;;;;9.07;4.50;;;;;;;20.38;82.74;99723.06;5030886;28;20159;-56
2023/06/14 07:10:04;;;;;;;7.87;4.23;;;;;;;20.14;82.89;99693.69;5039421;28;20724;-59
2023/06/14 07:12:39;;;;;;;10.17;5.10;;;;;;;20.40;82.99;99725.63;5027722;28;20352;-57
2023/06/14 07:15:11;;;;;;;9.30;4.70;;;;;;;20.40;82.90;99728.28;5040128;28;20309;-58
2023/06/14 07:17:42;;;;;;;11.80;4.80;;;;;;;20.43;83.17;99728.94;5029001;28;20337;-57
2023/06/14 07:20:14;;;;;;;13.53;4.97;;;;;;;20.45;83.07;99731.50;5039564;28;20290;-57
2023/06/14 07:22:45;;;;;;;9.33;6.83;;;;;;;20.09;83.70;99657.81;5029570;28;20381;-56
2023/06/14 07:25:15;;;;;;;10.67;6.70;;;;;;;20.57;83.11;99728.06;5039379;28;20352;-57
2023/06/14 07:27:48;;;;;;;12.60;6.87;;;;;;;20.48;83.10;99718.84;5028493;28;20279;-57
2023/06/14 07:30:19;;;;;;;10.77;5.50;;;;;;;20.71;83.46;99734.25;5039809;28;20294;-56
2023/06/14 07:32:50;;;;;;;11.63;5.87;;;;;;;20.90;82.81;99729.41;5028457;28;21385;-59
2023/06/14 07:35:21;;;;;;;11.83;5.00;;;;;;;21.08;81.16;99717.50;5039610;28;20283;-57
2023/06/14 07:37:51;;;;;;;11.33;5.67;;;;;;;21.28;80.78;99739.22;5029289;28;21310;-56
2023/06/14 07:40:23;;;;;;;11.33;5.60;;;;;;;21.46;80.76;99737.94;5039410;28;20070;-57
2023/06/14 07:42:55;;;;;;;14.17;6.20;;;;;;;21.44;80.25;99721.28;5028973;28;20359;-57
2023/06/14 07:45:27;;;;;;;16.07;6.63;;;;;;;21.50;79.51;99744.75;5040196;28;20294;-58
2023/06/14 07:47:57;;;;;;;11.17;5.70;;;;;;;21.31;78.90;99750.47;5017893;28;20654;-58
2023/06/14 07:50:28;;;;;;;9.97;5.93;;;;;;;21.21;78.87;99753.88;5021025;28;20275;-57
2023/06/14 07:52:59;;;;;;;11.03;5.40;;;;;;;21.09;79.39;99761.75;5017779;28;20049;-56
2023/06/14 07:55:30;;;;;;;9.67;5.37;;;;;;;20.91;80.03;99757.66;5027339;28;20507;-57
2023/06/14 07:58:15;;;;;;;12.53;4.77;;;;;;;20.73;80.48;99769.50;5030463;28;20052;-58
2023/06/14 08:00:47;;;;;;;9.97;4.83;;;;;;;20.64;81.86;99766.53;5027757;28;20291;-57
2023/06/14 08:03:18;;;;;;;9.90;4.80;;;;;;;20.58;81.84;99772.22;5039570;28;20348;-57
2023/06/14 08:05:48;;;;;;;8.43;5.40;;;;;;;20.56;82.52;99763.50;5028864;28;20290;-56
2023/06/14 08:08:19;;;;;;;15.53;5.27;;;;;;;20.59;81.96;99758.00;5038817;28;20399;-57
2023/06/14 08:10:50;;;;;;;13.17;5.70;;;;;;;20.57;81.80;99765.22;5027907;28;20340;-57
2023/06/14 08:13:22;;;;;;;8.13;5.20;;;;;;;20.57;81.29;99775.84;5038591;28;20283;-57
2023/06/14 08:15:53;;;;;;;8.03;5.47;;;;;;;20.49;81.08;99772.78;5029600;28;20288;-57
2023/06/14 08:18:24;;;;;;;7.47;5.10;;;;;;;20.24;81.31;99742.56;5039264;28;20291;-58
2023/06/14 08:20:57;;;;;;;6.13;4.77;;;;;;;20.48;81.46;99774.59;5028388;28;20733;-58
2023/06/14 08:23:27;;;;;;;10.60;7.30;;;;;;;20.49;81.67;99778.09;5039279;28;20282;-58
2023/06/14 08:26:01;;;;;;;12.60;7.97;;;;;;;20.34;81.71;99760.50;5028964;28;20352;-57
2023/06/14 08:28:36;;;;;;;9.03;6.30;;;;;;;20.40;81.85;99799.94;5035373;28;20356;-56
2023/06/14 08:31:06;;;;;;;13.57;6.40;;;;;;;20.26;82.11;99793.69;5038553;28;20287;-57
2023/06/14 08:33:37;;;;;;;9.20;5.80;;;;;;;20.19;82.81;99792.41;5028648;28;20348;-58
2023/06/14 08:36:08;;;;;;;11.60;6.50;;;;;;;20.10;82.97;99792.97;5039382;28;20311;-57
2023/06/14 08:38:41;;;;;;;11.43;5.87;;;;;;;20.01;83.09;99794.41;5025873;28;20328;-58
2023/06/14 08:41:15;;;;;;;11.33;5.37;;;;;;;19.93;83.62;99806.44;5038938;28;20345;-57
2023/06/14 08:43:47;;;;;;;8.63;5.67;;;;;;;19.85;83.98;99795.47;5028305;28;20282;-56
2023/06/14 08:46:22;;;;;;;10.20;5.50;;;;;;;19.60;84.25;99778.41;5038515;28;20668;-57
2023/06/14 08:48:55;;;;;;;11.37;6.00;;;;;;;19.70;84.50;99806.06;5028599;28;20376;-56
2023/06/14 08:51:33;;;;;;;10.60;5.97;;;;;;;19.60;85.26;99797.81;5039406;28;20282;-57
2023/06/14 08:54:05;;;;;;;10.73;6.43;;;;;;;19.50;85.70;99798.47;5014075;28;20333;-57
2023/06/14 08:56:41;;;;;;;8.13;6.07;;;;;;;19.46;86.40;99796.94;5028019;28;20055;-57
2023/06/14 08:59:13;;;;;;;10.77;6.27;;;;;;;19.31;86.63;99786.31;5038537;28;20322;-57
2023/06/14 09:01:52;;;;;;;15.83;6.90;;;;;;;19.27;87.23;99792.75;5027958;28;20845;-57
2023/06/14 09:04:41;;;;;;;9.83;7.40;;;;;;;19.17;87.29;99787.16;5028282;28;20700;-58
2023/06/14 09:07:16;;;;;;;7.90;6.20;;;;;;;19.17;88.02;99802.19;5038409;28;20325;-56
2023/06/14 09:09:46;;;;;;;13.10;6.37;;;;;;;19.17;87.92;99797.75;5031691;28;20291;-56
2023/06/14 09:12:40;;;;;;;7.40;5.63;;;;;;;18.91;88.19;99759.56;5032021;28;21276;-57
2023/06/14 09:15:28;;;;;;;9.17;6.70;;;;;;;19.15;88.46;99801.44;5042664;28;20159;-57
2023/06/14 09:21:30;;;;;;;13.43;6.80;;;;;;;18.96;89.08;99804.28;5025019;28;20292;-57
2023/06/14 09:24:02;;;;;;;11.43;7.03;;;;;;;18.87;89.44;99810.13;5020046;28;20283;-57
2023/06/14 09:26:34;;;;;;;11.47;7.90;;;;;;;18.84;90.15;99821.72;5030478;28;20271;-57
2023/06/14 09:29:07;;;;;;;9.80;5.83;;;;;;;18.75;90.54;99811.66;5041498;28;20314;-57
2023/06/14 09:31:41;;;;;;;9.20;6.43;;;;;;;18.66;91.22;99817.47;5031624;28;20275;-56
2023/06/14 09:34:13;;;;;;;8.87;6.40;;;;;;;18.66;90.37;99817.47;5041773;28;20297;-57
2023/06/14 09:36:44;;;;;;;14.20;8.47;;;;;;;18.54;90.51;99813.72;5030695;28;20622;-56
2023/06/14 09:39:20;;;;;;;9.23;5.83;;;;;;;18.44;90.91;99818.69;5041889;28;20382;-57
2023/06/14 09:41:51;;;;;;;10.37;6.73;;;;;;;18.34;91.15;99825.41;5029018;28;20302;-57
2023/06/14 09:44:25;;;;;;;9.60;6.90;;;;;;;17.75;91.08;99750.22;5041463;28;20294;-57
2023/06/14 09:47:01;;;;;;;12.20;7.60;;;;;;;18.15;91.72;99833.53;5031165;28;20341;-57
2023/06/14 09:49:32;;;;;;;9.90;6.43;;;;;;;18.13;91.71;99837.19;5037012;28;20283;-57
2023/06/14 09:52:05;;;;;;;10.77;6.30;;;;;;;18.04;91.92;99826.16;5041899;28;20294;-57
2023/06/14 09:54:43;;;;;;;10.50;5.77;;;;;;;17.96;92.26;99817.81;5030422;28;20298;-57
2023/06/14 09:57:16;;;;;;;8.17;5.50;;;;;;;17.78;92.50;99808.19;5041666;28;20283;-56
2023/06/14 09:59:50;;;;;;;7.97;5.37;;;;;;;17.76;92.80;99826.75;5030920;28;20290;-57
2023/06/14 10:02:27;;;;;;;7.07;5.30;;;;;;;17.69;93.15;99828.88;5040694;28;20285;-57
2023/06/14 10:05:06;;;;;;;11.13;5.07;;;;;;;17.51;93.60;99816.63;5030468;28;20297;-56
2023/06/14 10:07:44;;;;;;;11.87;6.83;;;;;;;17.54;94.18;99824.38;5030947;28;20807;-56
2023/06/14 10:10:16;;;;;;;16.30;11.40;;;;;;;17.45;94.39;99827.53;5040565;28;20326;-57
2023/06/14 10:12:48;;;;;;;18.23;9.17;;;;;;;16.88;94.93;99758.28;5030517;28;20293;-58
2023/06/14 10:15:31;;;;;;;15.70;6.97;;;;;;;17.33;95.34;99822.88;5042039;28;20298;-57
2023/06/14 10:18:14;;;;;;;12.30;6.57;;;;;;;17.24;95.06;99824.19;5015716;28;20377;-56
2023/06/14 10:20:54;;;;;;;9.00;6.23;;;;;;;17.04;95.38;99823.41;5030046;28;20368;-57
2023/06/14 10:23:28;;;;;;;7.13;5.63;;;;;;;16.80;95.60;99804.38;5038091;28;20375;-57
2023/06/14 10:26:00;;;;;;;6.30;5.00;;;;;;;17.00;96.08;99842.13;5030064;28;20290;-58
2023/06/14 10:28:32;;;;;;;13.30;9.87;;;;;;;16.94;96.40;99850.34;5040371;28;20377;-58
2023/06/14 10:31:11;;;;;;;20.00;12.77;;;;;;;16.87;96.78;99841.00;5030723;28;20847;-58
2023/06/14 10:33:52;;;;;;;11.57;8.90;;;;;;;16.68;97.22;99836.59;5030018;28;20671;-58
2023/06/14 10:36:33;;;;;;;14.03;11.30;;;;;;;16.77;97.74;99852.00;5040603;28;20370;-58
2023/06/14 10:39:08;;;;;;;16.13;8.53;;;;;;;16.74;98.02;99854.75;5015859;28;20287;-57
2023/06/14 10:41:41;;;;;;;11.97;9.73;;;;;;;16.72;98.38;99853.97;5030313;28;20275;-56
2023/06/14 10:44:44;;;;;;;13.87;8.50;;;;;;;16.76;98.76;99859.97;5040790;28;20279;-56
2023/06/14 10:47:30;;;;;;;9.40;5.80;;;;;;;16.77;99.11;99861.66;5040525;28;20648;-57
2023/06/14 10:50:09;;;;;;;10.50;5.23;;;;;;;16.65;99.05;99847.31;5029976;28;20409;-57
2023/06/14 10:52:43;;;;;;;8.60;5.50;;;;;;;16.64;99.34;99855.28;5030468;28;21121;-58
2023/06/14 10:55:18;;;;;;;7.90;5.83;;;;;;;16.60;99.70;99844.03;5040331;28;20052;-56
2023/06/14 10:57:55;;;;;;;17.03;9.13;;;;;;;16.68;100.00;99868.25;5029674;28;20263;-58
2023/06/14 11:00:28;;;;;;;32.50;17.37;;;;;;;16.69;100.00;99875.22;5041057;28;20345;-57
2023/06/14 11:03:49;;;;;;;98.50;43.93;;;;;;;16.72;100.00;99880.34;5018937;28;20298;-57
2023/06/14 11:06:25;;;;;;;27.73;13.63;;;;;;;16.74;100.00;99883.78;4984434;28;20303;-57
2023/06/14 11:09:29;;;;;;;24.67;10.40;;;;;;;16.70;100.00;99881.34;5007087;28;20309;-57
2023/06/14 11:12:05;;;;;;;17.83;8.90;;;;;;;16.68;100.00;99889.38;5010449;28;20295;-57
2023/06/14 11:14:36;;;;;;;11.37;7.17;;;;;;;16.63;100.00;99880.81;5009915;28;20690;-57
2023/06/14 11:17:08;;;;;;;13.03;6.23;;;;;;;16.64;100.00;99886.94;5019880;28;20626;-56
2023/06/14 11:19:40;;;;;;;12.77;6.43;;;;;;;16.32;100.00;99834.78;5009843;28;20356;-56
2023/06/14 11:22:15;;;;;;;10.40;5.93;;;;;;;16.58;100.00;99888.94;5020639;28;21677;-57
2023/06/14 11:24:46;;;;;;;8.77;6.63;;;;;;;16.56;100.00;99879.38;5009627;28;20283;-58
2023/06/14 11:27:18;;;;;;;11.27;5.63;;;;;;;16.57;100.00;99881.97;5020632;28;20287;-57
2023/06/14 11:29:52;;;;;;;11.70;5.87;;;;;;;16.55;100.00;99880.34;5009494;28;20734;-57
2023/06/14 11:32:24;;;;;;;12.03;5.47;;;;;;;16.52;100.00;99888.38;5019476;28;20275;-57
2023/06/14 11:34:58;;;;;;;8.87;5.13;;;;;;;16.22;100.00;99830.00;5009989;28;22094;-57
2023/06/14 11:37:32;;;;;;;12.37;5.60;;;;;;;16.47;100.00;99891.22;5019891;28;20288;-57
2023/06/14 11:40:08;;;;;;;9.27;6.03;;;;;;;16.44;100.00;99887.88;4990831;28;20407;-56
2023/06/14 11:42:39;;;;;;;12.63;6.37;;;;;;;16.35;100.00;99882.13;4992317;28;20751;-56
2023/06/14 11:45:12;;;;;;;11.27;7.37;;;;;;;16.21;100.00;99860.78;5002006;28;20284;-57
2023/06/14 11:47:44;;;;;;;12.27;8.60;;;;;;;16.28;100.00;99880.69;4992364;28;20759;-56
2023/06/14 11:50:15;;;;;;;14.57;7.90;;;;;;;16.26;100.00;99877.25;5000829;28;20319;-57
2023/06/14 11:52:55;;;;;;;10.07;6.87;;;;;;;16.18;100.00;99887.31;4992084;28;20294;-57
2023/06/14 11:55:27;;;;;;;15.13;7.53;;;;;;;16.09;100.00;99875.38;5001197;28;20762;-58
2023/06/14 11:57:59;;;;;;;11.27;6.87;;;;;;;16.12;100.00;99884.94;5005636;28;20288;-57